createdAt,value
2022-10-21T00:01:12.094Z,5.80
2022-10-21T00:03:40.481Z,10.17
2022-10-21T00:06:09.679Z,5.60
2022-10-21T00:08:39.048Z,5.17
2022-10-21T00:11:09.865Z,7.20
2022-10-21T00:13:40.794Z,4.73
2022-10-21T00:16:11.527Z,5.37
2022-10-21T00:18:42.462Z,5.93
2022-10-21T00:21:13.323Z,6.10
2022-10-21T00:23:42.719Z,5.20
2022-10-21T00:26:11.949Z,5.73
2022-10-21T00:28:42.668Z,5.03
2022-10-21T00:31:13.636Z,5.87
2022-10-21T00:33:42.849Z,7.27
2022-10-21T00:36:15.133Z,6.20
2022-10-21T00:38:45.374Z,9.77
2022-10-21T00:41:15.686Z,6.10
2022-10-21T00:44:03.515Z,8.37
2022-10-21T00:46:39.579Z,5.87
2022-10-21T00:49:13.883Z,5.63
2022-10-21T00:51:42.967Z,7.40
2022-10-21T00:54:11.955Z,5.33
2022-10-21T00:56:43.318Z,5.47
2022-10-21T00:59:14.464Z,7.13
2022-10-21T01:01:43.938Z,6.90
2022-10-21T01:04:12.402Z,5.60
2022-10-21T01:06:42.055Z,4.53
2022-10-21T01:09:10.637Z,6.50
2022-10-21T01:11:43.572Z,7.03
2022-10-21T01:14:33.635Z,5.73
2022-10-21T01:17:26.624Z,5.20
2022-10-21T01:20:36.959Z,6.60
2022-10-21T01:23:32.665Z,5.27
2022-10-21T01:26:26.655Z,5.80
2022-10-21T01:29:16.235Z,5.20
2022-10-21T01:31:50.696Z,8.77
2022-10-21T01:34:27.897Z,7.43
2022-10-21T01:37:02.006Z,5.77
2022-10-21T01:39:39.894Z,9.67
2022-10-21T01:42:16.200Z,6.27
2022-10-21T01:44:49.397Z,7.83
2022-10-21T01:47:24.000Z,4.93
2022-10-21T01:49:57.042Z,7.47
2022-10-21T01:52:25.747Z,6.73
2022-10-21T01:54:59.687Z,6.43
2022-10-21T01:57:34.860Z,6.63
2022-10-21T02:00:04.107Z,5.37
2022-10-21T02:02:37.494Z,7.47
2022-10-21T02:05:12.388Z,4.87
2022-10-21T02:07:40.796Z,6.43
2022-10-21T02:10:10.109Z,4.80
2022-10-21T02:12:40.824Z,5.97
2022-10-21T02:15:10.978Z,5.97
2022-10-21T02:17:48.014Z,5.33
2022-10-21T02:20:18.921Z,8.10
2022-10-21T02:22:49.335Z,6.77
2022-10-21T02:25:21.423Z,6.90
2022-10-21T02:27:50.495Z,6.53
2022-10-21T02:30:18.910Z,7.53
2022-10-21T02:32:55.278Z,5.23
2022-10-21T02:35:32.766Z,8.67
2022-10-21T02:38:07.346Z,8.85
2022-10-21T02:40:41.637Z,8.83
2022-10-21T02:43:13.720Z,6.47
2022-10-21T02:45:42.199Z,7.83
2022-10-21T02:48:11.952Z,5.10
2022-10-21T02:50:40.353Z,5.80
2022-10-21T02:53:10.874Z,5.43
2022-10-21T02:55:39.237Z,8.83
2022-10-21T02:58:07.414Z,5.27
2022-10-21T03:00:35.853Z,8.40
2022-10-21T03:03:04.128Z,4.87
2022-10-21T03:05:33.763Z,6.27
2022-10-21T03:08:02.014Z,6.83
2022-10-21T03:10:30.197Z,7.97
2022-10-21T03:12:58.626Z,8.10
2022-10-21T03:15:26.912Z,10.40
2022-10-21T03:17:55.273Z,9.67
2022-10-21T03:20:23.583Z,5.93
2022-10-21T03:22:53.257Z,7.67
2022-10-21T03:25:21.659Z,6.63
2022-10-21T03:27:51.372Z,8.83
2022-10-21T03:30:19.740Z,6.67
2022-10-21T03:32:47.962Z,8.23
2022-10-21T03:35:16.463Z,7.33
2022-10-21T03:37:45.576Z,7.10
2022-10-21T03:40:15.338Z,6.47
2022-10-21T03:42:43.639Z,7.37
2022-10-21T03:45:12.684Z,7.57
2022-10-21T03:47:41.127Z,6.07
2022-10-21T03:50:13.906Z,10.00
2022-10-21T03:52:44.755Z,7.53
2022-10-21T03:55:14.585Z,6.00
2022-10-21T03:57:43.199Z,7.70
2022-10-21T04:02:46.197Z,8.07
2022-10-21T04:05:14.384Z,10.23
2022-10-21T04:07:42.775Z,9.70
2022-10-21T04:10:12.074Z,7.97
2022-10-21T04:12:42.115Z,8.43
2022-10-21T04:15:13.762Z,9.40
2022-10-21T04:17:42.810Z,7.37
2022-10-21T04:20:12.735Z,7.50
2022-10-21T04:22:41.209Z,9.03
2022-10-21T04:25:10.611Z,7.10
2022-10-21T04:27:38.957Z,9.87
2022-10-21T04:30:10.235Z,7.87
2022-10-21T04:32:38.907Z,6.57
2022-10-21T04:35:08.003Z,8.13
2022-10-21T04:37:40.233Z,8.77
2022-10-21T04:40:10.249Z,9.00
2022-10-21T04:42:38.553Z,10.20
2022-10-21T04:45:09.216Z,7.23
2022-10-21T04:47:37.749Z,7.23
2022-10-21T04:50:07.041Z,8.73
2022-10-21T04:52:35.504Z,10.67
2022-10-21T04:55:04.135Z,8.03
2022-10-21T04:57:32.616Z,7.57
2022-10-21T05:00:00.918Z,6.23
2022-10-21T05:02:30.780Z,7.87
2022-10-21T05:04:59.557Z,10.23
2022-10-21T05:07:27.855Z,9.23
2022-10-21T05:09:56.154Z,9.50
2022-10-21T05:12:24.474Z,9.33
2022-10-21T05:14:52.794Z,8.97
2022-10-21T05:17:21.081Z,8.10
2022-10-21T05:19:50.812Z,7.43
2022-10-21T05:22:19.042Z,9.97
2022-10-21T05:24:47.319Z,8.00
2022-10-21T05:27:15.619Z,7.23
2022-10-21T05:29:43.855Z,11.27
2022-10-21T05:32:12.163Z,8.73
2022-10-21T05:34:40.443Z,7.97
2022-10-21T05:37:10.115Z,9.13
2022-10-21T05:39:38.448Z,8.90
2022-10-21T05:42:06.699Z,7.97
2022-10-21T05:44:35.006Z,11.77
2022-10-21T05:47:03.191Z,7.07
2022-10-21T05:49:31.485Z,7.10
2022-10-21T05:51:59.810Z,8.00
2022-10-21T05:54:29.717Z,15.33
2022-10-21T05:56:58.279Z,8.20
2022-10-21T05:59:26.989Z,8.37
2022-10-21T06:01:55.271Z,10.57
2022-10-21T06:04:23.582Z,7.70
2022-10-21T06:06:51.861Z,10.73
2022-10-21T06:09:20.137Z,8.17
2022-10-21T06:11:49.758Z,7.77
2022-10-21T06:14:19.839Z,7.93
2022-10-21T06:16:48.089Z,9.50
2022-10-21T06:19:16.312Z,8.17
2022-10-21T06:21:44.650Z,11.27
2022-10-21T06:24:12.847Z,13.30
2022-10-21T06:26:41.238Z,7.87
2022-10-21T06:29:10.960Z,7.47
2022-10-21T06:31:39.195Z,9.67
2022-10-21T06:34:07.569Z,9.67
2022-10-21T06:36:38.184Z,8.13
2022-10-21T06:39:06.663Z,8.50
2022-10-21T06:41:35.334Z,8.70
2022-10-21T06:44:03.578Z,9.07
2022-10-21T06:46:33.371Z,8.53
2022-10-21T06:49:01.638Z,10.80
2022-10-21T06:51:30.555Z,8.93
2022-10-21T06:54:00.358Z,12.57
2022-10-21T06:56:29.522Z,10.33
2022-10-21T06:58:58.716Z,8.77
2022-10-21T07:01:34.991Z,10.60
2022-10-21T07:04:11.922Z,8.93
2022-10-21T07:06:40.255Z,7.90
2022-10-21T07:09:09.708Z,8.90
2022-10-21T07:11:38.049Z,17.30
2022-10-21T07:14:06.335Z,8.13
2022-10-21T07:16:36.412Z,12.60
2022-10-21T07:19:05.535Z,10.80
2022-10-21T07:21:35.244Z,8.83
2022-10-21T07:24:03.620Z,8.97
2022-10-21T07:26:34.015Z,9.20
2022-10-21T07:29:02.561Z,13.65
2022-10-21T07:31:34.108Z,10.27
2022-10-21T07:36:40.537Z,8.63
2022-10-21T07:39:11.301Z,8.53
2022-10-21T07:41:41.429Z,7.73
2022-10-21T07:44:10.693Z,9.53
2022-10-21T07:46:40.387Z,7.65
2022-10-21T07:49:09.152Z,6.43
2022-10-21T07:51:39.643Z,7.67
2022-10-21T07:54:08.251Z,13.87
2022-10-21T07:56:38.439Z,10.33
2022-10-21T07:59:11.699Z,9.00
2022-10-21T08:01:44.919Z,8.95
2022-10-21T08:04:14.333Z,11.60
2022-10-21T08:06:45.145Z,8.93
2022-10-21T08:09:13.691Z,9.83
2022-10-21T08:11:42.156Z,13.60
2022-10-21T08:14:11.531Z,8.88
2022-10-21T08:16:40.295Z,8.50
2022-10-21T08:19:09.650Z,10.52
2022-10-21T08:21:39.093Z,12.38
2022-10-21T08:24:08.817Z,7.20
2022-10-21T08:26:37.248Z,7.63
2022-10-21T08:29:06.028Z,11.25
2022-10-21T08:31:34.319Z,9.88
2022-10-21T08:34:02.601Z,9.35
2022-10-21T08:36:30.831Z,11.70
2022-10-21T08:38:59.894Z,6.53
2022-10-21T08:42:05.143Z,9.80
2022-10-21T08:44:40.076Z,8.57
2022-10-21T08:47:16.345Z,9.77
2022-10-21T08:50:01.051Z,8.25
2022-10-21T08:52:38.227Z,10.90
2022-10-21T08:55:09.098Z,10.20
2022-10-21T08:57:38.937Z,7.38
2022-10-21T09:00:15.994Z,9.57
2022-10-21T09:02:55.898Z,7.75
2022-10-21T09:05:34.266Z,10.25
2022-10-21T09:08:14.426Z,8.85
2022-10-21T09:10:56.906Z,9.35
2022-10-21T09:13:43.010Z,11.57
2022-10-21T09:16:19.936Z,10.63
2022-10-21T09:18:59.166Z,11.25
2022-10-21T09:21:38.924Z,11.00
2022-10-21T09:24:10.036Z,9.02
2022-10-21T09:26:41.743Z,11.35
2022-10-21T09:29:27.873Z,8.93
2022-10-21T09:32:02.749Z,10.93
2022-10-21T09:34:42.075Z,10.32
2022-10-21T09:37:17.602Z,8.63
2022-10-21T09:39:51.446Z,8.90
2022-10-21T09:42:35.693Z,11.13
2022-10-21T09:45:20.503Z,10.95
2022-10-21T09:47:56.689Z,10.52
2022-10-21T09:50:25.715Z,11.48
2022-10-21T09:53:02.113Z,9.25
2022-10-21T09:55:31.786Z,11.10
2022-10-21T09:58:02.119Z,8.73
2022-10-21T10:00:47.065Z,8.38
2022-10-21T10:03:31.905Z,8.50
2022-10-21T10:06:00.632Z,10.00
2022-10-21T10:08:33.640Z,10.65
2022-10-21T10:11:12.821Z,10.68
2022-10-21T10:13:42.863Z,10.93
2022-10-21T10:16:19.518Z,9.15
2022-10-21T10:18:47.806Z,9.52
2022-10-21T10:21:17.265Z,10.38
2022-10-21T10:23:48.694Z,12.45
2022-10-21T10:26:24.113Z,9.25
2022-10-21T10:28:56.867Z,8.38
2022-10-21T10:31:30.087Z,11.73
2022-10-21T10:34:01.093Z,8.10
2022-10-21T10:36:33.339Z,12.30
2022-10-21T10:39:03.874Z,8.93
2022-10-21T10:41:38.988Z,21.17
2022-10-21T10:44:20.271Z,9.80
2022-10-21T10:46:55.818Z,10.35
2022-10-21T10:49:25.193Z,14.18
2022-10-21T10:52:07.648Z,11.60
2022-10-21T10:54:37.174Z,10.70
2022-10-21T10:57:07.982Z,10.73
2022-10-21T10:59:41.899Z,10.50
2022-10-21T11:02:24.662Z,12.80
2022-10-21T11:05:08.426Z,10.23
2022-10-21T11:07:41.410Z,10.30
2022-10-21T11:10:23.578Z,10.73
2022-10-21T11:12:51.885Z,10.70
2022-10-21T11:15:23.073Z,8.73
2022-10-21T11:18:17.141Z,8.95
2022-10-21T11:20:59.731Z,13.32
2022-10-21T11:23:52.278Z,12.60
2022-10-21T11:26:29.426Z,8.55
2022-10-21T11:29:06.017Z,16.08
2022-10-21T11:31:59.617Z,10.10
2022-10-21T11:34:42.194Z,9.40
2022-10-21T11:37:22.589Z,8.15
2022-10-21T11:40:00.074Z,14.30
2022-10-21T11:42:33.249Z,10.32
2022-10-21T11:45:30.604Z,9.70
2022-10-21T11:48:05.429Z,11.05
2022-10-21T11:50:42.468Z,12.57
2022-10-21T11:53:23.800Z,16.58
2022-10-21T11:56:01.642Z,11.45
2022-10-21T11:58:40.567Z,8.23
2022-10-21T12:01:24.132Z,11.75
2022-10-21T12:04:06.544Z,7.32
2022-10-21T12:06:39.671Z,10.30
2022-10-21T12:09:13.737Z,8.48
2022-10-21T12:11:47.541Z,10.07
2022-10-21T12:14:31.012Z,9.63
2022-10-21T12:17:02.984Z,12.65
2022-10-21T12:19:31.635Z,8.90
2022-10-21T12:22:01.747Z,9.63
2022-10-21T12:24:44.490Z,9.93
2022-10-21T12:27:20.617Z,9.23
2022-10-21T12:30:01.852Z,12.13
2022-10-21T12:32:36.847Z,13.00
2022-10-21T12:35:06.396Z,8.43
2022-10-21T12:38:02.367Z,8.73
2022-10-21T12:40:39.851Z,7.43
2022-10-21T12:43:19.959Z,13.50
2022-10-21T12:45:49.469Z,10.60
2022-10-21T12:48:34.155Z,7.22
2022-10-21T12:51:04.426Z,9.75
2022-10-21T12:53:41.563Z,11.75
2022-10-21T12:56:11.522Z,9.75
2022-10-21T12:58:44.001Z,9.35
2022-10-21T13:01:38.901Z,9.85
2022-10-21T13:04:40.041Z,13.38
2022-10-21T13:07:32.414Z,10.90
2022-10-21T13:10:17.687Z,6.78
2022-10-21T13:12:48.082Z,12.95
2022-10-21T13:15:48.389Z,10.32
2022-10-21T13:18:54.923Z,7.10
2022-10-21T13:21:26.462Z,8.80
2022-10-21T13:23:56.473Z,9.43
2022-10-21T13:26:30.255Z,10.00
2022-10-21T13:29:03.082Z,7.15
2022-10-21T13:31:31.677Z,8.25
2022-10-21T13:34:00.388Z,9.02
2022-10-21T13:36:39.240Z,10.73
2022-10-21T13:39:25.413Z,9.07
2022-10-21T13:42:02.507Z,9.52
2022-10-21T13:44:36.076Z,10.32
2022-10-21T13:47:28.479Z,8.85
2022-10-21T13:49:58.842Z,7.63
2022-10-21T13:52:30.372Z,8.77
2022-10-21T13:54:59.857Z,9.70
2022-10-21T13:57:34.813Z,7.38
2022-10-21T14:00:07.742Z,9.20
2022-10-21T14:02:36.051Z,9.13
2022-10-21T14:05:04.584Z,8.43
2022-10-21T14:07:33.623Z,8.82
2022-10-21T14:10:01.902Z,7.90
2022-10-21T14:12:47.372Z,9.05
2022-10-21T14:15:19.910Z,10.15
2022-10-21T14:17:51.909Z,9.00
2022-10-21T14:20:26.076Z,12.25
2022-10-21T14:22:56.005Z,10.30
2022-10-21T14:25:24.539Z,6.78
2022-10-21T14:27:54.355Z,7.95
2022-10-21T14:30:25.464Z,8.13
2022-10-21T14:32:54.619Z,10.98
2022-10-21T14:35:28.322Z,9.68
2022-10-21T14:37:58.626Z,13.00
2022-10-21T14:40:32.158Z,7.75
2022-10-21T14:43:04.099Z,6.30
2022-10-21T14:45:34.850Z,9.52
2022-10-21T14:48:17.375Z,7.68
2022-10-21T14:50:53.970Z,6.72
2022-10-21T14:53:24.338Z,7.95
2022-10-21T14:55:57.545Z,18.55
2022-10-21T14:58:32.554Z,6.88
2022-10-21T15:01:03.125Z,7.60
2022-10-21T15:03:39.403Z,9.23
2022-10-21T15:06:13.833Z,8.32
2022-10-21T15:08:43.735Z,8.75
2022-10-21T15:11:18.888Z,8.15
2022-10-21T15:14:17.501Z,8.13
2022-10-21T15:16:51.790Z,8.68
2022-10-21T15:19:24.222Z,7.28
2022-10-21T15:21:56.692Z,10.93
2022-10-21T15:24:32.475Z,11.02
2022-10-21T15:27:02.080Z,9.85
2022-10-21T15:29:37.057Z,14.05
2022-10-21T15:32:06.583Z,9.90
2022-10-21T15:34:34.853Z,11.25
2022-10-21T15:37:03.285Z,8.52
2022-10-21T15:39:31.665Z,8.90
2022-10-21T15:42:00.426Z,8.43
2022-10-21T15:44:30.106Z,9.30
2022-10-21T15:47:02.563Z,10.00
2022-10-21T15:49:34.351Z,7.82
2022-10-21T15:52:02.691Z,8.18
2022-10-21T15:54:30.988Z,12.52
2022-10-21T15:57:00.586Z,8.15
2022-10-21T15:59:30.697Z,10.52
2022-10-21T16:02:01.130Z,7.85
2022-10-21T16:04:29.417Z,8.27
2022-10-21T16:06:57.859Z,10.20
2022-10-21T16:09:27.547Z,9.27
2022-10-21T16:11:59.798Z,13.55
2022-10-21T16:14:30.779Z,8.55
2022-10-21T16:17:01.149Z,9.32
2022-10-21T16:19:30.233Z,7.95
2022-10-21T16:21:58.520Z,12.27
2022-10-21T16:24:26.775Z,8.30
2022-10-21T16:26:55.179Z,8.77
2022-10-21T16:29:25.338Z,8.93
2022-10-21T16:31:53.979Z,10.27
2022-10-21T16:34:23.797Z,8.85
2022-10-21T16:36:52.050Z,10.23
2022-10-21T16:39:24.445Z,11.23
2022-10-21T16:41:52.930Z,13.73
2022-10-21T16:44:21.182Z,10.30
2022-10-21T16:46:52.253Z,8.35
2022-10-21T16:49:25.300Z,10.60
2022-10-21T16:51:54.665Z,11.50
2022-10-21T16:54:24.412Z,13.45
2022-10-21T16:56:55.029Z,11.00
2022-10-21T16:59:24.290Z,10.60
2022-10-21T17:01:52.950Z,14.32
2022-10-21T17:04:21.175Z,12.00
2022-10-21T17:06:50.920Z,10.07
2022-10-21T17:09:19.967Z,13.23
2022-10-21T17:11:48.394Z,12.35
2022-10-21T17:14:18.781Z,14.18
2022-10-21T17:16:47.751Z,16.05
2022-10-21T17:19:16.530Z,14.32
2022-10-21T17:21:45.058Z,11.75
2022-10-21T17:24:17.665Z,16.55
2022-10-21T17:26:46.690Z,14.32
2022-10-21T17:29:15.680Z,11.98
2022-10-21T17:31:44.618Z,14.63
2022-10-21T17:34:25.666Z,11.30
2022-10-21T17:36:54.559Z,14.15
2022-10-21T17:39:24.913Z,11.55
2022-10-21T17:41:53.665Z,15.18
2022-10-21T17:44:22.348Z,13.77
2022-10-21T17:46:54.608Z,14.38
2022-10-21T17:49:23.697Z,14.75
2022-10-21T17:51:52.050Z,13.75
2022-10-21T17:54:24.166Z,14.20
2022-10-21T17:56:57.881Z,10.82
2022-10-21T17:59:27.349Z,12.88
2022-10-21T18:01:55.657Z,11.05
2022-10-21T18:04:23.885Z,12.30
2022-10-21T18:06:52.126Z,12.80
2022-10-21T18:09:20.471Z,11.32
2022-10-21T18:11:48.906Z,14.90
2022-10-21T18:14:18.952Z,12.95
2022-10-21T18:16:47.213Z,14.95
2022-10-21T18:19:15.451Z,14.50
2022-10-21T18:21:43.829Z,11.93
2022-10-21T18:24:12.840Z,14.90
2022-10-21T18:26:41.255Z,13.07
2022-10-21T18:29:09.534Z,14.13
2022-10-21T18:31:39.670Z,13.63
2022-10-21T18:34:09.399Z,12.43
2022-10-21T18:36:38.114Z,13.10
2022-10-21T18:39:06.868Z,14.68
2022-10-21T18:41:36.352Z,12.73
2022-10-21T18:44:08.622Z,11.52
2022-10-21T18:46:39.393Z,13.23
2022-10-21T18:49:12.267Z,12.80
2022-10-21T18:51:41.289Z,10.95
2022-10-21T18:54:09.674Z,12.95
2022-10-21T18:56:37.973Z,13.55
2022-10-21T18:59:06.774Z,11.15
2022-10-21T19:01:35.183Z,12.13
2022-10-21T19:04:05.028Z,14.10
2022-10-21T19:06:37.198Z,13.07
2022-10-21T19:09:09.852Z,38.05
2022-10-21T19:11:38.088Z,16.08
2022-10-21T19:14:08.498Z,14.30
2022-10-21T19:16:39.854Z,12.85
2022-10-21T19:19:09.853Z,15.70
2022-10-21T19:21:38.098Z,12.38
2022-10-21T19:24:07.227Z,10.90
2022-10-21T19:26:37.143Z,12.63
2022-10-21T19:29:08.686Z,11.45
2022-10-21T19:31:38.607Z,8.98
2022-10-21T19:34:07.206Z,12.95
2022-10-21T19:36:36.890Z,13.00
2022-10-21T19:39:05.248Z,13.85
2022-10-21T19:41:33.713Z,12.50
2022-10-21T19:44:02.050Z,15.27
2022-10-21T19:46:32.752Z,16.50
2022-10-21T19:49:02.675Z,11.00
2022-10-21T19:51:33.666Z,11.63
2022-10-21T19:54:05.268Z,13.00
2022-10-21T19:56:34.585Z,10.38
2022-10-21T19:59:03.729Z,13.80
2022-10-21T20:01:33.959Z,12.10
2022-10-21T20:04:03.383Z,11.73
2022-10-21T20:06:33.445Z,13.93
2022-10-21T20:09:05.720Z,13.02
2022-10-21T20:11:34.996Z,16.52
2022-10-21T20:14:04.384Z,14.05
2022-10-21T20:16:35.158Z,14.13
2022-10-21T20:19:05.525Z,11.98
2022-10-21T20:21:34.927Z,14.02
2022-10-21T20:24:04.970Z,11.70
2022-10-21T20:26:33.330Z,12.75
2022-10-21T20:29:02.583Z,14.32
2022-10-21T20:31:30.864Z,14.55
2022-10-21T20:33:59.103Z,14.95
2022-10-21T20:36:29.226Z,14.43
2022-10-21T20:38:59.634Z,10.77
2022-10-21T20:41:33.929Z,14.02
2022-10-21T20:44:03.283Z,17.20
2022-10-21T20:46:35.275Z,13.68
2022-10-21T20:49:05.132Z,16.80
2022-10-21T20:51:33.707Z,14.82
2022-10-21T20:54:03.683Z,11.45
2022-10-21T20:56:36.973Z,11.43
2022-10-21T20:59:06.727Z,11.77
2022-10-21T21:01:37.561Z,14.77
2022-10-21T21:04:11.296Z,12.27
2022-10-21T21:06:41.685Z,13.93
2022-10-21T21:12:02.833Z,13.13
2022-10-21T21:14:31.257Z,14.82
2022-10-21T21:16:59.510Z,11.60
2022-10-21T21:19:27.772Z,14.02
2022-10-21T21:21:55.983Z,15.13
2022-10-21T21:24:24.421Z,15.88
2022-10-21T21:26:52.777Z,14.07
2022-10-21T21:29:22.400Z,17.83
2022-10-21T21:31:50.651Z,15.00
2022-10-21T21:34:18.874Z,17.30
2022-10-21T21:36:47.244Z,26.60
2022-10-21T21:41:48.755Z,13.90
2022-10-21T21:44:17.244Z,16.45
2022-10-21T21:46:46.878Z,15.35
2022-10-21T21:49:15.154Z,15.77
2022-10-21T21:51:43.427Z,14.45
2022-10-21T21:54:11.706Z,18.20
2022-10-21T21:56:40.046Z,15.82
2022-10-21T21:59:08.278Z,14.43
2022-10-21T22:01:36.853Z,13.23
2022-10-21T22:04:06.561Z,16.80
2022-10-21T22:06:36.754Z,15.88
2022-10-21T22:09:10.257Z,16.15
2022-10-21T22:11:39.796Z,17.73
2022-10-21T22:14:08.072Z,14.82
2022-10-21T22:16:36.992Z,16.80
2022-10-21T22:19:07.333Z,17.65
2022-10-21T22:21:35.573Z,14.15
2022-10-21T22:24:07.839Z,16.35
2022-10-21T22:26:36.166Z,19.20
2022-10-21T22:29:04.454Z,17.58
2022-10-21T22:31:32.718Z,17.10
2022-10-21T22:34:03.444Z,14.30
2022-10-21T22:36:35.282Z,17.80
2022-10-21T22:39:03.694Z,14.65
2022-10-21T22:41:31.966Z,15.02
2022-10-21T22:44:00.236Z,14.77
2022-10-21T22:46:33.982Z,16.05
2022-10-21T22:49:04.150Z,17.15
2022-10-21T22:51:32.828Z,14.55
2022-10-21T22:54:02.512Z,16.85
2022-10-21T22:56:30.835Z,15.75
2022-10-21T22:58:59.166Z,15.38
2022-10-21T23:01:30.443Z,15.05
2022-10-21T23:04:02.815Z,17.55
2022-10-21T23:06:31.693Z,16.23
2022-10-21T23:09:00.036Z,16.77
2022-10-21T23:11:30.578Z,22.83
2022-10-21T23:14:03.392Z,19.17
2022-10-21T23:16:36.664Z,15.13
2022-10-21T23:19:05.080Z,15.23
2022-10-21T23:21:33.431Z,15.43
2022-10-21T23:24:01.723Z,14.73
2022-10-21T23:26:31.414Z,12.52
2022-10-21T23:28:59.743Z,16.73
2022-10-21T23:31:27.985Z,12.50
2022-10-21T23:33:56.345Z,13.07
2022-10-21T23:36:24.553Z,12.65
2022-10-21T23:38:55.810Z,11.68
2022-10-21T23:41:24.544Z,12.90
2022-10-21T23:43:54.160Z,17.42
2022-10-21T23:46:23.672Z,15.85
2022-10-21T23:48:52.031Z,15.70
2022-10-21T23:51:20.468Z,12.85
2022-10-21T23:53:48.901Z,15.32
2022-10-21T23:56:17.182Z,11.23
2022-10-21T23:58:45.622Z,14.48
